createdAt,value
2023-03-15T00:02:06.068Z,76.04
2023-03-15T00:04:51.783Z,76.52
2023-03-15T00:07:36.758Z,76.64
2023-03-15T00:10:22.237Z,75.42
2023-03-15T00:13:07.808Z,76.00
2023-03-15T00:15:58.278Z,73.79
2023-03-15T00:18:43.559Z,75.09
2023-03-15T00:21:31.561Z,74.70
2023-03-15T00:24:16.947Z,74.87
2023-03-15T00:27:02.001Z,74.65
2023-03-15T00:29:47.314Z,74.45
2023-03-15T00:32:32.580Z,73.54
2023-03-15T00:35:18.317Z,73.98
2023-03-15T00:38:05.465Z,75.44
2023-03-15T00:40:50.829Z,75.21
2023-03-15T00:43:36.250Z,75.60
2023-03-15T00:46:21.451Z,76.41
2023-03-15T00:49:06.570Z,75.38
2023-03-15T00:51:54.980Z,75.51
2023-03-15T00:54:41.776Z,73.62
2023-03-15T00:57:27.262Z,75.31
2023-03-15T01:00:20.506Z,75.18
2023-03-15T01:03:05.534Z,75.29
2023-03-15T01:05:51.036Z,76.14
2023-03-15T01:08:36.361Z,75.08
2023-03-15T01:11:24.308Z,74.82
2023-03-15T01:14:09.939Z,75.43
2023-03-15T01:16:55.580Z,75.38
2023-03-15T01:19:40.462Z,74.43
2023-03-15T01:22:26.788Z,75.21
2023-03-15T01:25:12.156Z,74.93
2023-03-15T01:27:59.042Z,74.74
2023-03-15T01:30:54.245Z,74.81
2023-03-15T01:33:40.782Z,74.29
2023-03-15T01:36:25.959Z,73.45
2023-03-15T01:39:11.531Z,75.05
2023-03-15T01:41:59.706Z,74.83
2023-03-15T01:44:50.662Z,75.69
2023-03-15T01:47:36.224Z,76.08
2023-03-15T01:50:25.350Z,74.51
2023-03-15T01:53:11.487Z,75.01
2023-03-15T01:55:58.133Z,75.41
2023-03-15T01:58:53.684Z,75.73
2023-03-15T02:01:45.454Z,75.98
2023-03-15T02:04:36.315Z,75.48
2023-03-15T02:07:24.758Z,75.94
2023-03-15T02:10:14.516Z,75.85
2023-03-15T02:13:03.615Z,75.61
2023-03-15T02:15:49.412Z,75.54
2023-03-15T02:18:43.228Z,75.97
2023-03-15T02:21:56.594Z,75.60
2023-03-15T02:24:55.077Z,75.61
2023-03-15T02:27:44.639Z,74.95
2023-03-15T02:30:30.075Z,74.62
2023-03-15T02:33:25.061Z,75.26
2023-03-15T02:36:19.847Z,75.56
2023-03-15T02:39:20.712Z,75.93
2023-03-15T02:42:06.162Z,75.23
2023-03-15T02:44:51.680Z,75.46
2023-03-15T02:47:38.342Z,76.06
2023-03-15T02:50:23.617Z,75.04
2023-03-15T02:53:10.011Z,74.50
2023-03-15T02:55:55.200Z,75.33
2023-03-15T02:58:40.814Z,75.70
2023-03-15T03:01:26.475Z,75.07
2023-03-15T03:04:11.613Z,75.34
2023-03-15T03:06:57.521Z,76.18
2023-03-15T03:09:51.077Z,76.32
2023-03-15T03:12:38.128Z,76.78
2023-03-15T03:15:23.298Z,76.03
2023-03-15T03:18:08.864Z,76.53
2023-03-15T03:20:59.080Z,76.15
2023-03-15T03:23:46.215Z,75.69
2023-03-15T03:26:32.745Z,75.78
2023-03-15T03:29:18.420Z,76.18
2023-03-15T03:32:06.491Z,75.39
2023-03-15T03:34:51.694Z,75.03
2023-03-15T03:37:40.184Z,75.56
2023-03-15T03:40:31.782Z,74.88
2023-03-15T03:43:17.129Z,74.98
2023-03-15T03:46:03.718Z,74.44
2023-03-15T03:48:50.530Z,74.55
2023-03-15T03:51:36.298Z,74.52
2023-03-15T03:54:21.780Z,74.17
2023-03-15T03:57:07.054Z,74.96
2023-03-15T03:59:54.184Z,74.76
2023-03-15T04:02:42.577Z,75.04
2023-03-15T04:05:29.182Z,75.38
2023-03-15T04:08:14.431Z,76.20
2023-03-15T04:10:59.906Z,75.35
2023-03-15T04:13:48.116Z,75.81
2023-03-15T04:16:33.250Z,75.81
2023-03-15T04:19:21.782Z,75.56
2023-03-15T04:22:10.187Z,75.73
2023-03-15T04:25:19.577Z,76.43
2023-03-15T04:28:30.820Z,76.51
2023-03-15T04:31:28.497Z,76.37
2023-03-15T04:34:39.752Z,76.41
2023-03-15T04:37:32.550Z,76.32
2023-03-15T04:40:36.256Z,75.78
2023-03-15T04:43:47.632Z,76.59
2023-03-15T04:46:44.493Z,77.03
2023-03-15T04:50:09.689Z,76.54
2023-03-15T04:53:10.693Z,76.97
2023-03-15T04:56:06.918Z,76.96
2023-03-15T04:59:14.038Z,77.07
2023-03-15T05:02:28.596Z,77.37
2023-03-15T05:05:26.445Z,78.07
2023-03-15T05:08:24.089Z,78.11
2023-03-15T05:11:27.916Z,77.02
2023-03-15T05:14:42.188Z,76.81
2023-03-15T05:17:48.592Z,77.40
2023-03-15T05:21:05.985Z,77.69
2023-03-15T05:24:17.242Z,76.65
2023-03-15T05:27:25.281Z,77.17
2023-03-15T05:30:31.271Z,77.10
2023-03-15T05:33:36.036Z,75.70
2023-03-15T05:36:47.540Z,75.68
2023-03-15T05:39:51.847Z,75.71
2023-03-15T05:43:00.363Z,75.04
2023-03-15T05:45:59.393Z,74.74
2023-03-15T05:48:56.699Z,74.51
2023-03-15T05:51:56.608Z,74.19
2023-03-15T05:55:01.703Z,74.48
2023-03-15T05:57:58.859Z,75.03
2023-03-15T06:01:12.959Z,73.71
2023-03-15T06:04:15.417Z,74.28
2023-03-15T06:07:00.659Z,74.82
2023-03-15T06:09:47.002Z,74.60
2023-03-15T06:12:32.705Z,74.13
2023-03-15T06:15:19.740Z,72.74
2023-03-15T06:18:06.297Z,72.21
2023-03-15T06:20:51.525Z,71.91
2023-03-15T06:23:37.940Z,71.65
2023-03-15T06:26:23.312Z,71.60
2023-03-15T06:29:13.744Z,71.70
2023-03-15T06:31:58.885Z,71.11
2023-03-15T06:34:45.833Z,73.96
2023-03-15T06:37:35.593Z,76.39
2023-03-15T06:40:21.571Z,77.38
2023-03-15T06:43:08.209Z,77.70
2023-03-15T06:45:55.857Z,78.13
2023-03-15T06:48:41.956Z,77.54
2023-03-15T06:51:29.478Z,76.55
2023-03-15T06:54:14.744Z,76.74
2023-03-15T06:57:00.217Z,76.40
2023-03-15T06:59:45.502Z,75.83
2023-03-15T07:02:36.933Z,76.86
2023-03-15T07:05:22.385Z,75.54
2023-03-15T07:08:07.901Z,73.95
2023-03-15T07:10:53.274Z,74.41
2023-03-15T07:13:38.372Z,74.76
2023-03-15T07:16:24.284Z,74.50
2023-03-15T07:19:09.516Z,74.79
2023-03-15T07:21:54.989Z,73.32
2023-03-15T07:24:40.732Z,73.34
2023-03-15T07:27:26.079Z,72.83
2023-03-15T07:30:11.939Z,73.16
2023-03-15T07:32:57.149Z,71.74
2023-03-15T07:35:42.546Z,71.23
2023-03-15T07:38:31.275Z,71.11
2023-03-15T07:41:16.574Z,70.04
2023-03-15T07:44:13.675Z,69.95
2023-03-15T07:46:59.120Z,70.62
2023-03-15T07:49:44.247Z,70.20
2023-03-15T07:52:29.621Z,70.07
2023-03-15T07:55:15.182Z,68.56
2023-03-15T07:58:01.675Z,68.04
2023-03-15T08:00:47.183Z,68.07
2023-03-15T08:03:32.810Z,68.29
2023-03-15T08:06:18.370Z,66.14
2023-03-15T08:09:05.651Z,66.79
2023-03-15T08:11:51.306Z,67.13
2023-03-15T08:14:37.156Z,66.81
2023-03-15T08:17:22.730Z,67.28
2023-03-15T08:20:11.539Z,66.74
2023-03-15T08:22:56.820Z,66.82
2023-03-15T08:25:44.086Z,66.38
2023-03-15T08:28:29.576Z,66.86
2023-03-15T08:31:15.053Z,66.33
2023-03-15T08:34:00.254Z,67.25
2023-03-15T08:36:48.816Z,65.81
2023-03-15T08:39:36.210Z,66.12
2023-03-15T08:42:22.035Z,66.86
2023-03-15T08:45:08.310Z,65.31
2023-03-15T08:48:01.318Z,64.87
2023-03-15T08:50:46.583Z,65.05
2023-03-15T08:53:32.346Z,64.24
2023-03-15T08:56:17.490Z,65.30
2023-03-15T08:59:02.744Z,64.93
2023-03-15T09:01:48.394Z,64.59
2023-03-15T09:04:34.279Z,64.93
2023-03-15T09:07:20.630Z,62.85
2023-03-15T09:10:06.172Z,61.81
2023-03-15T09:12:53.595Z,62.38
2023-03-15T09:15:39.067Z,62.90
2023-03-15T09:18:24.891Z,63.12
2023-03-15T09:21:10.821Z,63.53
2023-03-15T09:23:56.226Z,62.88
2023-03-15T09:26:41.543Z,62.81
2023-03-15T09:29:27.121Z,62.68
2023-03-15T09:32:14.078Z,62.78
2023-03-15T09:34:59.417Z,63.15
2023-03-15T09:37:44.912Z,63.49
2023-03-15T09:40:33.901Z,62.21
2023-03-15T09:43:44.006Z,62.92
2023-03-15T09:46:44.585Z,60.67
2023-03-15T09:49:45.278Z,60.00
2023-03-15T09:52:41.153Z,60.53
2023-03-15T09:55:28.693Z,59.90
2023-03-15T09:58:21.225Z,60.99
2023-03-15T10:01:12.760Z,60.61
2023-03-15T10:03:59.729Z,59.87
2023-03-15T10:06:51.908Z,59.79
2023-03-15T10:09:37.581Z,59.79
2023-03-15T10:12:29.513Z,61.33
2023-03-15T10:15:20.741Z,60.97
2023-03-15T10:18:12.162Z,59.83
2023-03-15T10:21:07.505Z,59.41
2023-03-15T10:23:54.215Z,59.59
2023-03-15T10:26:39.929Z,60.38
2023-03-15T10:29:26.850Z,59.82
2023-03-15T10:32:17.913Z,57.61
2023-03-15T10:35:14.037Z,57.39
2023-03-15T10:37:59.393Z,55.99
2023-03-15T10:40:45.795Z,56.64
2023-03-15T10:43:36.790Z,57.23
2023-03-15T10:46:23.820Z,55.11
2023-03-15T10:49:16.090Z,53.33
2023-03-15T10:52:01.398Z,53.35
2023-03-15T10:54:50.075Z,54.69
2023-03-15T10:57:41.317Z,54.63
2023-03-15T11:00:31.741Z,54.22
2023-03-15T11:03:16.854Z,53.83
2023-03-15T11:06:03.031Z,54.59
2023-03-15T11:08:48.742Z,55.56
2023-03-15T11:11:58.916Z,55.67
2023-03-15T11:14:48.660Z,53.92
2023-03-15T11:17:42.228Z,54.29
2023-03-15T11:20:36.381Z,54.80
2023-03-15T11:23:26.353Z,54.11
2023-03-15T11:26:38.511Z,52.82
2023-03-15T11:29:31.593Z,52.66
2023-03-15T11:32:21.320Z,49.47
2023-03-15T11:35:13.909Z,50.68
2023-03-15T11:38:15.181Z,52.39
2023-03-15T11:41:23.994Z,53.20
2023-03-15T11:44:33.929Z,53.25
2023-03-15T11:47:45.534Z,51.44
2023-03-15T11:50:33.194Z,51.15
2023-03-15T11:53:18.532Z,51.32
2023-03-15T11:56:39.933Z,50.04
2023-03-15T11:59:38.046Z,49.78
2023-03-15T12:02:23.205Z,49.17
2023-03-15T12:05:44.691Z,47.73
2023-03-15T12:08:38.794Z,50.01
2023-03-15T12:11:24.490Z,49.83
2023-03-15T12:14:29.979Z,50.00
2023-03-15T12:17:24.595Z,49.54
2023-03-15T12:20:17.694Z,48.84
2023-03-15T12:23:13.179Z,48.45
2023-03-15T12:26:06.885Z,49.51
2023-03-15T12:29:00.979Z,48.46
2023-03-15T12:32:08.730Z,47.48
2023-03-15T12:34:57.691Z,46.19
2023-03-15T12:37:46.235Z,46.72
2023-03-15T12:40:38.857Z,46.19
2023-03-15T12:43:46.105Z,48.57
2023-03-15T12:46:54.288Z,48.95
2023-03-15T12:49:45.005Z,49.56
2023-03-15T12:52:41.874Z,49.19
2023-03-15T12:55:35.625Z,45.90
2023-03-15T12:58:28.530Z,45.68
2023-03-15T13:01:16.808Z,46.05
2023-03-15T13:04:03.861Z,47.54
2023-03-15T13:07:24.657Z,44.14
2023-03-15T13:10:31.342Z,44.37
2023-03-15T13:13:44.976Z,44.90
2023-03-15T13:16:44.423Z,44.30
2023-03-15T13:19:41.736Z,44.08
2023-03-15T13:22:49.947Z,44.07
2023-03-15T13:26:23.303Z,44.98
2023-03-15T13:29:17.468Z,42.71
2023-03-15T13:32:15.513Z,42.32
2023-03-15T13:35:02.084Z,41.62
2023-03-15T13:37:47.367Z,42.04
2023-03-15T13:40:33.014Z,42.76
2023-03-15T13:43:18.269Z,44.38
2023-03-15T13:46:03.934Z,43.57
2023-03-15T13:48:50.645Z,47.32
2023-03-15T13:51:39.225Z,54.69
2023-03-15T13:54:30.691Z,60.05
2023-03-15T13:57:20.327Z,61.62
2023-03-15T14:00:12.322Z,63.24
2023-03-15T14:03:01.611Z,63.39
2023-03-15T14:05:49.686Z,63.11
2023-03-15T14:08:38.974Z,60.81
2023-03-15T14:11:24.197Z,61.15
2023-03-15T14:14:21.619Z,60.75
2023-03-15T14:17:25.012Z,59.07
2023-03-15T14:20:16.412Z,56.71
2023-03-15T14:23:04.367Z,54.58
2023-03-15T14:25:54.913Z,54.47
2023-03-15T14:28:41.579Z,53.98
2023-03-15T14:31:30.570Z,50.79
2023-03-15T14:34:33.522Z,49.38
2023-03-15T14:37:31.054Z,48.52
2023-03-15T14:40:20.126Z,48.06
2023-03-15T14:43:07.673Z,46.40
2023-03-15T14:45:54.053Z,45.11
2023-03-15T14:48:39.924Z,43.31
2023-03-15T14:51:28.416Z,43.00
2023-03-15T14:54:13.771Z,43.49
2023-03-15T14:56:58.988Z,42.87
2023-03-15T14:59:44.154Z,42.68
2023-03-15T15:02:29.838Z,42.94
2023-03-15T15:05:29.207Z,42.89
2023-03-15T15:08:16.278Z,43.71
2023-03-15T15:11:02.660Z,42.80
2023-03-15T15:13:48.479Z,41.96
2023-03-15T15:16:34.063Z,43.36
2023-03-15T15:19:19.586Z,43.58
2023-03-15T15:22:04.950Z,43.23
2023-03-15T15:24:51.450Z,44.13
2023-03-15T15:27:36.553Z,43.85
2023-03-15T15:30:24.922Z,44.63
2023-03-15T15:33:11.565Z,43.81
2023-03-15T15:35:57.934Z,44.66
2023-03-15T15:38:43.668Z,44.99
2023-03-15T15:41:31.376Z,44.78
2023-03-15T15:44:19.375Z,45.80
2023-03-15T15:47:07.256Z,45.29
2023-03-15T15:49:52.395Z,45.93
2023-03-15T15:52:40.564Z,44.55
2023-03-15T15:55:28.937Z,44.32
2023-03-15T15:58:15.198Z,43.90
2023-03-15T16:01:00.640Z,44.66
2023-03-15T16:03:45.893Z,44.05
2023-03-15T16:06:31.700Z,45.03
2023-03-15T16:09:18.675Z,49.50
2023-03-15T16:12:12.931Z,63.91
2023-03-15T16:14:58.803Z,72.91
2023-03-15T16:17:45.214Z,79.00
2023-03-15T16:20:30.431Z,82.13
2023-03-15T16:23:21.872Z,84.71
2023-03-15T16:26:16.200Z,81.12
2023-03-15T16:29:02.606Z,79.84
2023-03-15T16:31:48.439Z,80.00
2023-03-15T16:34:34.534Z,80.34
2023-03-15T16:37:26.129Z,81.93
2023-03-15T16:40:25.329Z,81.13
2023-03-15T16:43:14.523Z,82.46
2023-03-15T16:45:59.932Z,81.23
2023-03-15T16:48:45.201Z,82.45
2023-03-15T16:51:31.664Z,82.08
2023-03-15T16:54:30.523Z,81.55
2023-03-15T16:57:22.718Z,80.68
2023-03-15T17:00:18.351Z,80.76
2023-03-15T17:03:04.487Z,79.70
2023-03-15T17:05:49.730Z,80.63
2023-03-15T17:08:35.059Z,79.75
2023-03-15T17:11:20.257Z,77.89
2023-03-15T17:14:07.247Z,77.00
2023-03-15T17:16:53.056Z,77.53
2023-03-15T17:19:38.416Z,77.51
2023-03-15T17:22:25.406Z,76.68
2023-03-15T17:25:11.715Z,76.68
2023-03-15T17:27:57.043Z,77.60
2023-03-15T17:30:42.617Z,85.88
2023-03-15T17:33:27.745Z,83.56
2023-03-15T17:36:14.744Z,87.11
2023-03-15T17:39:00.151Z,83.15
2023-03-15T17:41:48.255Z,76.68
2023-03-15T17:44:33.589Z,76.14
2023-03-15T17:47:19.160Z,76.15
2023-03-15T17:50:04.763Z,75.87
2023-03-15T17:52:55.251Z,76.15
2023-03-15T17:55:40.808Z,76.76
2023-03-15T17:58:27.312Z,76.46
2023-03-15T18:01:16.271Z,76.72
2023-03-15T18:04:01.316Z,76.17
2023-03-15T18:06:46.635Z,75.43
2023-03-15T18:09:31.981Z,74.92
2023-03-15T18:12:18.200Z,73.99
2023-03-15T18:15:05.102Z,74.88
2023-03-15T18:17:50.840Z,74.79
2023-03-15T18:20:36.477Z,73.51
2023-03-15T18:23:21.623Z,72.85
2023-03-15T18:26:07.155Z,72.83
2023-03-15T18:28:52.418Z,73.10
2023-03-15T18:31:37.662Z,72.04
2023-03-15T18:34:23.434Z,72.19
2023-03-15T18:37:09.700Z,70.31
2023-03-15T18:39:55.078Z,71.45
2023-03-15T18:42:41.658Z,71.08
2023-03-15T18:45:30.785Z,71.42
2023-03-15T18:48:18.353Z,71.78
2023-03-15T18:51:05.287Z,70.85
2023-03-15T18:53:50.823Z,71.59
2023-03-15T18:56:36.349Z,72.08
2023-03-15T18:59:22.082Z,71.25
2023-03-15T19:02:09.794Z,71.59
2023-03-15T19:04:57.990Z,71.47
2023-03-15T19:07:43.294Z,70.98
2023-03-15T19:10:28.603Z,72.28
2023-03-15T19:13:13.885Z,72.33
2023-03-15T19:15:59.224Z,73.06
2023-03-15T19:18:44.972Z,72.40
2023-03-15T19:21:29.993Z,72.27
2023-03-15T19:24:15.135Z,73.58
2023-03-15T19:27:00.621Z,73.74
2023-03-15T19:29:46.420Z,73.95
2023-03-15T19:32:31.448Z,73.37
2023-03-15T19:35:18.854Z,73.18
2023-03-15T19:38:04.100Z,73.56
2023-03-15T19:40:55.004Z,73.34
2023-03-15T19:43:43.300Z,72.64
2023-03-15T19:46:28.531Z,73.57
2023-03-15T19:49:13.936Z,74.05
2023-03-15T19:51:59.408Z,73.75
2023-03-15T19:54:44.522Z,73.34
2023-03-15T19:57:30.381Z,73.79
2023-03-15T20:00:18.412Z,74.28
2023-03-15T20:03:04.351Z,74.52
2023-03-15T20:05:49.913Z,74.38
2023-03-15T20:08:35.740Z,75.20
2023-03-15T20:11:25.003Z,74.98
2023-03-15T20:14:11.084Z,74.83
2023-03-15T20:16:56.306Z,74.72
2023-03-15T20:19:42.133Z,74.75
2023-03-15T20:22:27.511Z,74.49
2023-03-15T20:25:17.543Z,74.19
2023-03-15T20:28:04.268Z,74.67
2023-03-15T20:30:49.454Z,74.54
2023-03-15T20:33:35.683Z,74.98
2023-03-15T20:36:21.899Z,74.96
2023-03-15T20:39:07.925Z,75.13
2023-03-15T20:41:53.484Z,74.98
2023-03-15T20:44:41.475Z,75.38
2023-03-15T20:47:26.852Z,74.84
2023-03-15T20:50:13.235Z,75.14
2023-03-15T20:53:00.727Z,74.72
2023-03-15T20:55:45.897Z,75.42
2023-03-15T20:58:31.979Z,75.24
2023-03-15T21:01:17.728Z,75.58
2023-03-15T21:04:03.022Z,75.24
2023-03-15T21:06:49.505Z,75.25
2023-03-15T21:09:35.376Z,75.49
2023-03-15T21:12:20.721Z,75.56
2023-03-15T21:15:06.934Z,76.01
2023-03-15T21:17:52.923Z,75.29
2023-03-15T21:20:38.392Z,75.22
2023-03-15T21:23:24.170Z,74.76
2023-03-15T21:26:11.935Z,74.99
2023-03-15T21:28:57.395Z,75.48
2023-03-15T21:31:42.603Z,75.62
2023-03-15T21:34:28.355Z,75.93
2023-03-15T21:37:13.560Z,76.17
2023-03-15T21:40:00.100Z,75.88
2023-03-15T21:42:47.635Z,75.56
2023-03-15T21:45:33.212Z,75.54
2023-03-15T21:48:19.210Z,76.41
2023-03-15T21:51:05.597Z,75.62
2023-03-15T21:53:51.213Z,76.35
2023-03-15T21:56:36.360Z,76.04
2023-03-15T21:59:28.190Z,76.29
2023-03-15T22:02:14.157Z,76.48
2023-03-15T22:04:59.669Z,76.86
2023-03-15T22:07:44.865Z,76.91
2023-03-15T22:10:30.384Z,76.88
2023-03-15T22:13:15.656Z,76.74
2023-03-15T22:16:01.397Z,77.37
2023-03-15T22:18:47.018Z,77.19
2023-03-15T22:21:33.193Z,77.09
2023-03-15T22:24:18.524Z,77.70
2023-03-15T22:27:04.037Z,77.47
2023-03-15T22:29:49.469Z,77.33
2023-03-15T22:32:35.166Z,76.63
2023-03-15T22:35:20.484Z,77.58
2023-03-15T22:38:10.040Z,77.18
2023-03-15T22:41:04.170Z,77.21
2023-03-15T22:43:49.552Z,77.88
2023-03-15T22:46:35.935Z,77.56
2023-03-15T22:49:22.932Z,78.08
2023-03-15T22:52:08.651Z,78.23
2023-03-15T22:54:54.373Z,78.71
2023-03-15T22:57:39.872Z,78.07
2023-03-15T23:00:25.340Z,78.53
2023-03-15T23:03:11.495Z,78.19
2023-03-15T23:05:57.327Z,78.40
2023-03-15T23:08:42.783Z,78.28
2023-03-15T23:11:28.040Z,78.64
2023-03-15T23:14:13.472Z,78.81
2023-03-15T23:16:59.210Z,78.52
2023-03-15T23:19:44.844Z,78.93
2023-03-15T23:22:30.321Z,78.39
2023-03-15T23:25:21.478Z,78.39
2023-03-15T23:28:07.522Z,78.81
2023-03-15T23:30:52.678Z,78.46
2023-03-15T23:33:38.154Z,78.60
2023-03-15T23:36:23.532Z,78.94
2023-03-15T23:39:09.148Z,78.73
2023-03-15T23:41:57.781Z,78.28
2023-03-15T23:44:43.404Z,78.68
2023-03-15T23:47:28.762Z,79.24
2023-03-15T23:50:14.484Z,78.70
2023-03-15T23:52:59.594Z,78.58
2023-03-15T23:55:45.450Z,78.68
2023-03-15T23:58:30.982Z,78.48
